sensor_id;sensor_type;location;lat;lon;timestamp;pressure;altitude;pressure_sealevel;temperature;humidity
80938;BME280;70395;51.382;7.074;2024-01-15T00:00:23;99109.59;;;2.79;68.70
80938;BME280;70395;51.382;7.074;2024-01-15T00:02:49;99084.94;;;2.78;68.74
80938;BME280;70395;51.382;7.074;2024-01-15T00:05:15;99088.44;;;2.79;68.77
80938;BME280;70395;51.382;7.074;2024-01-15T00:07:41;99086.63;;;2.79;68.78
80938;BME280;70395;51.382;7.074;2024-01-15T00:10:07;99085.78;;;2.79;68.69
80938;BME280;70395;51.382;7.074;2024-01-15T00:12:33;99079.16;;;2.73;69.02
80938;BME280;70395;51.382;7.074;2024-01-15T00:14:58;99083.66;;;2.73;69.03
80938;BME280;70395;51.382;7.074;2024-01-15T00:17:24;99070.97;;;2.76;69.10
80938;BME280;70395;51.382;7.074;2024-01-15T00:19:50;99076.13;;;2.78;68.86
80938;BME280;70395;51.382;7.074;2024-01-15T00:22:16;99065.56;;;2.78;69.06
80938;BME280;70395;51.382;7.074;2024-01-15T00:24:41;99061.94;;;2.79;69.05
80938;BME280;70395;51.382;7.074;2024-01-15T00:27:07;99063.50;;;2.81;68.93
80938;BME280;70395;51.382;7.074;2024-01-15T00:29:33;99055.69;;;2.80;68.94
80938;BME280;70395;51.382;7.074;2024-01-15T00:31:59;99043.28;;;2.80;68.88
80938;BME280;70395;51.382;7.074;2024-01-15T00:34:25;99047.75;;;2.80;68.93
80938;BME280;70395;51.382;7.074;2024-01-15T00:36:50;99054.00;;;2.79;68.92
80938;BME280;70395;51.382;7.074;2024-01-15T00:39:16;99052.22;;;2.79;68.90
80938;BME280;70395;51.382;7.074;2024-01-15T00:41:43;99042.31;;;2.81;68.95
80938;BME280;70395;51.382;7.074;2024-01-15T00:44:08;99060.63;;;2.85;68.75
80938;BME280;70395;51.382;7.074;2024-01-15T00:46:45;99049.75;;;2.88;68.85
80938;BME280;70395;51.382;7.074;2024-01-15T00:49:13;99045.06;;;2.91;68.74
80938;BME280;70395;51.382;7.074;2024-01-15T00:51:39;99048.41;;;2.93;68.73
80938;BME280;70395;51.382;7.074;2024-01-15T00:54:06;99048.41;;;2.93;68.73
80938;BME280;70395;51.382;7.074;2024-01-15T00:56:31;99050.09;;;2.95;68.54
80938;BME280;70395;51.382;7.074;2024-01-15T00:58:57;99042.72;;;2.98;68.69
80938;BME280;70395;51.382;7.074;2024-01-15T01:01:23;99034.31;;;2.93;68.71
80938;BME280;70395;51.382;7.074;2024-01-15T01:03:49;99042.16;;;2.95;68.79
80938;BME280;70395;51.382;7.074;2024-01-15T01:06:14;99036.00;;;2.94;68.72
80938;BME280;70395;51.382;7.074;2024-01-15T01:08:40;99037.56;;;2.97;68.76
80938;BME280;70395;51.382;7.074;2024-01-15T01:11:06;99046.09;;;3.00;68.73
80938;BME280;70395;51.382;7.074;2024-01-15T01:13:32;99038.97;;;3.01;68.71
80938;BME280;70395;51.382;7.074;2024-01-15T01:15:58;99034.53;;;3.01;68.41
80938;BME280;70395;51.382;7.074;2024-01-15T01:18:24;99031.75;;;3.03;68.63
80938;BME280;70395;51.382;7.074;2024-01-15T01:20:50;99028.25;;;3.02;68.35
80938;BME280;70395;51.382;7.074;2024-01-15T01:23:16;99030.09;;;3.02;68.63
80938;BME280;70395;51.382;7.074;2024-01-15T01:25:42;99023.94;;;3.01;68.46
80938;BME280;70395;51.382;7.074;2024-01-15T01:28:08;99032.59;;;3.03;68.51
80938;BME280;70395;51.382;7.074;2024-01-15T01:30:34;99024.91;;;3.00;68.53
80938;BME280;70395;51.382;7.074;2024-01-15T01:33:00;99027.69;;;2.99;68.61
80938;BME280;70395;51.382;7.074;2024-01-15T01:35:26;99025.88;;;2.99;68.79
80938;BME280;70395;51.382;7.074;2024-01-15T01:37:52;99028.53;;;2.99;68.41
80938;BME280;70395;51.382;7.074;2024-01-15T01:40:17;99034.53;;;3.01;68.60
80938;BME280;70395;51.382;7.074;2024-01-15T01:42:43;99030.78;;;3.04;68.54
80938;BME280;70395;51.382;7.074;2024-01-15T01:45:09;99029.00;;;3.04;68.63
80938;BME280;70395;51.382;7.074;2024-01-15T01:47:35;99036.94;;;3.04;68.70
80938;BME280;70395;51.382;7.074;2024-01-15T01:50:02;99030.78;;;3.04;68.74
80938;BME280;70395;51.382;7.074;2024-01-15T01:52:29;99028.13;;;3.04;68.56
80938;BME280;70395;51.382;7.074;2024-01-15T01:54:55;99024.50;;;3.05;68.67
80938;BME280;70395;51.382;7.074;2024-01-15T01:57:21;99025.50;;;3.04;68.50
80938;BME280;70395;51.382;7.074;2024-01-15T01:59:48;99026.34;;;3.04;68.54
80938;BME280;70395;51.382;7.074;2024-01-15T02:02:14;99029.00;;;3.04;68.57
80938;BME280;70395;51.382;7.074;2024-01-15T02:04:41;99026.34;;;3.04;68.66
80938;BME280;70395;51.382;7.074;2024-01-15T02:07:07;99028.25;;;3.02;68.71
80938;BME280;70395;51.382;7.074;2024-01-15T02:09:32;99041.38;;;3.04;68.61
80938;BME280;70395;51.382;7.074;2024-01-15T02:11:58;99032.59;;;3.03;68.72
80938;BME280;70395;51.382;7.074;2024-01-15T02:14:24;99044.88;;;3.04;68.82
80938;BME280;70395;51.382;7.074;2024-01-15T02:16:50;99039.69;;;3.03;68.66
80938;BME280;70395;51.382;7.074;2024-01-15T02:19:17;99038.75;;;3.04;68.53
80938;BME280;70395;51.382;7.074;2024-01-15T02:21:43;99036.94;;;3.04;68.66
80938;BME280;70395;51.382;7.074;2024-01-15T02:24:10;99037.75;;;3.05;68.65
80938;BME280;70395;51.382;7.074;2024-01-15T02:26:37;99037.63;;;3.07;68.62
80938;BME280;70395;51.382;7.074;2024-01-15T02:29:05;99036.66;;;3.08;68.60
80938;BME280;70395;51.382;7.074;2024-01-15T02:31:32;99037.25;;;3.11;68.56
80938;BME280;70395;51.382;7.074;2024-01-15T02:33:58;99042.56;;;3.11;68.56
80938;BME280;70395;51.382;7.074;2024-01-15T02:36:24;99043.25;;;3.13;68.47
80938;BME280;70395;51.382;7.074;2024-01-15T02:38:50;99040.59;;;3.13;68.57
80938;BME280;70395;51.382;7.074;2024-01-15T02:41:15;99045.66;;;3.17;68.45
80938;BME280;70395;51.382;7.074;2024-01-15T02:43:41;99042.88;;;3.18;68.46
80938;BME280;70395;51.382;7.074;2024-01-15T02:46:07;99043.00;;;3.17;68.41
80938;BME280;70395;51.382;7.074;2024-01-15T02:48:33;99041.19;;;3.17;68.39
80938;BME280;70395;51.382;7.074;2024-01-15T02:51:01;99042.88;;;3.18;68.47
80938;BME280;70395;51.382;7.074;2024-01-15T02:53:27;99036.63;;;3.19;68.50
80938;BME280;70395;51.382;7.074;2024-01-15T02:55:53;99027.69;;;3.20;68.39
80938;BME280;70395;51.382;7.074;2024-01-15T02:58:19;99025.63;;;3.24;68.25
80938;BME280;70395;51.382;7.074;2024-01-15T03:00:45;99033.28;;;3.27;68.16
80938;BME280;70395;51.382;7.074;2024-01-15T03:03:12;99021.47;;;3.31;68.29
80938;BME280;70395;51.382;7.074;2024-01-15T03:05:38;99015.19;;;3.32;68.18
80938;BME280;70395;51.382;7.074;2024-01-15T03:08:04;99023.16;;;3.32;67.93
80938;BME280;70395;51.382;7.074;2024-01-15T03:10:30;99016.28;;;3.30;68.09
80938;BME280;70395;51.382;7.074;2024-01-15T03:12:56;99030.53;;;3.29;68.17
80938;BME280;70395;51.382;7.074;2024-01-15T03:15:22;99018.25;;;3.28;68.16
80938;BME280;70395;51.382;7.074;2024-01-15T03:17:48;99017.41;;;3.27;68.16
80938;BME280;70395;51.382;7.074;2024-01-15T03:20:14;99019.94;;;3.29;68.05
80938;BME280;70395;51.382;7.074;2024-01-15T03:22:39;99027.03;;;3.28;68.11
80938;BME280;70395;51.382;7.074;2024-01-15T03:25:07;99034.28;;;3.26;68.22
80938;BME280;70395;51.382;7.074;2024-01-15T03:27:32;99032.47;;;3.26;68.10
80938;BME280;70395;51.382;7.074;2024-01-15T03:29:59;99032.34;;;3.28;68.23
80938;BME280;70395;51.382;7.074;2024-01-15T03:32:25;99030.63;;;3.27;68.21
80938;BME280;70395;51.382;7.074;2024-01-15T03:34:50;99025.34;;;3.27;68.28
80938;BME280;70395;51.382;7.074;2024-01-15T03:37:17;99019.22;;;3.26;68.08
80938;BME280;70395;51.382;7.074;2024-01-15T03:39:43;99033.44;;;3.25;68.13
80938;BME280;70395;51.382;7.074;2024-01-15T03:42:09;99030.78;;;3.25;68.13
80938;BME280;70395;51.382;7.074;2024-01-15T03:44:35;99027.28;;;3.25;67.96
80938;BME280;70395;51.382;7.074;2024-01-15T03:47:01;99018.78;;;3.21;68.01
80938;BME280;70395;51.382;7.074;2024-01-15T03:49:26;99017.09;;;3.20;68.06
80938;BME280;70395;51.382;7.074;2024-01-15T03:51:52;99021.81;;;3.17;68.10
80938;BME280;70395;51.382;7.074;2024-01-15T03:54:18;99020.25;;;3.14;68.28
80938;BME280;70395;51.382;7.074;2024-01-15T03:56:43;99022.06;;;3.13;68.30
80938;BME280;70395;51.382;7.074;2024-01-15T03:59:09;99015.91;;;3.13;68.06
80938;BME280;70395;51.382;7.074;2024-01-15T04:01:35;99016.91;;;3.12;68.11
80938;BME280;70395;51.382;7.074;2024-01-15T04:04:01;99018.72;;;3.11;68.18
80938;BME280;70395;51.382;7.074;2024-01-15T04:06:26;99008.81;;;3.13;68.10
80938;BME280;70395;51.382;7.074;2024-01-15T04:08:52;99004.94;;;3.18;68.23
80938;BME280;70395;51.382;7.074;2024-01-15T04:11:18;99005.63;;;3.20;67.96
80938;BME280;70395;51.382;7.074;2024-01-15T04:13:44;99009.97;;;3.21;68.11
80938;BME280;70395;51.382;7.074;2024-01-15T04:16:09;98999.25;;;3.22;67.96
80938;BME280;70395;51.382;7.074;2024-01-15T04:18:35;99000.94;;;3.23;67.83
80938;BME280;70395;51.382;7.074;2024-01-15T04:21:04;98994.53;;;3.26;67.87
80938;BME280;70395;51.382;7.074;2024-01-15T04:23:30;98992.44;;;3.30;68.00
80938;BME280;70395;51.382;7.074;2024-01-15T04:25:55;98982.59;;;3.32;67.62
80938;BME280;70395;51.382;7.074;2024-01-15T04:28:21;98988.84;;;3.31;67.66
80938;BME280;70395;51.382;7.074;2024-01-15T04:30:47;98988.69;;;3.32;67.78
80938;BME280;70395;51.382;7.074;2024-01-15T04:33:13;98984.38;;;3.31;67.81
80938;BME280;70395;51.382;7.074;2024-01-15T04:35:38;98978.94;;;3.33;67.79
80938;BME280;70395;51.382;7.074;2024-01-15T04:38:04;98982.59;;;3.32;67.83
80938;BME280;70395;51.382;7.074;2024-01-15T04:40:30;98976.56;;;3.30;67.71
80938;BME280;70395;51.382;7.074;2024-01-15T04:42:56;98975.72;;;3.29;67.74
80938;BME280;70395;51.382;7.074;2024-01-15T04:45:21;98973.19;;;3.28;67.61
80938;BME280;70395;51.382;7.074;2024-01-15T04:47:54;98973.09;;;3.29;67.69
80938;BME280;70395;51.382;7.074;2024-01-15T04:50:22;98971.84;;;3.33;67.45
80938;BME280;70395;51.382;7.074;2024-01-15T04:52:48;98984.00;;;3.36;67.49
80938;BME280;70395;51.382;7.074;2024-01-15T04:55:14;98970.16;;;3.32;67.58
80938;BME280;70395;51.382;7.074;2024-01-15T04:57:39;98968.50;;;3.31;67.71
80938;BME280;70395;51.382;7.074;2024-01-15T05:00:06;98961.50;;;3.30;67.78
80938;BME280;70395;51.382;7.074;2024-01-15T05:02:32;98969.44;;;3.30;67.76
80938;BME280;70395;51.382;7.074;2024-01-15T05:04:58;98971.84;;;3.33;67.65
80938;BME280;70395;51.382;7.074;2024-01-15T05:07:23;98964.59;;;3.35;67.63
80938;BME280;70395;51.382;7.074;2024-01-15T05:09:49;98968.94;;;3.36;67.47
80938;BME280;70395;51.382;7.074;2024-01-15T05:12:15;98964.59;;;3.35;67.68
80938;BME280;70395;51.382;7.074;2024-01-15T05:14:41;98962.91;;;3.34;67.50
80938;BME280;70395;51.382;7.074;2024-01-15T05:17:06;98965.44;;;3.36;67.63
80938;BME280;70395;51.382;7.074;2024-01-15T05:19:32;98965.28;;;3.37;67.55
80938;BME280;70395;51.382;7.074;2024-01-15T05:21:58;98960.84;;;3.38;67.39
80938;BME280;70395;51.382;7.074;2024-01-15T05:24:24;98960.84;;;3.38;67.28
80938;BME280;70395;51.382;7.074;2024-01-15T05:26:52;98942.16;;;3.40;67.51
80938;BME280;70395;51.382;7.074;2024-01-15T05:29:17;98954.59;;;3.39;67.35
80938;BME280;70395;51.382;7.074;2024-01-15T05:31:44;98952.03;;;3.37;67.34
80938;BME280;70395;51.382;7.074;2024-01-15T05:34:10;98945.34;;;3.33;67.30
80938;BME280;70395;51.382;7.074;2024-01-15T05:36:36;98946.44;;;3.31;67.48
80938;BME280;70395;51.382;7.074;2024-01-15T05:39:01;98943.94;;;3.29;67.58
80938;BME280;70395;51.382;7.074;2024-01-15T05:41:28;98943.94;;;3.29;67.66
80938;BME280;70395;51.382;7.074;2024-01-15T05:43:54;98935.00;;;3.30;67.68
80938;BME280;70395;51.382;7.074;2024-01-15T05:46:19;98942.00;;;3.31;67.49
80938;BME280;70395;51.382;7.074;2024-01-15T05:48:45;98940.88;;;3.34;67.56
80938;BME280;70395;51.382;7.074;2024-01-15T05:51:12;98940.75;;;3.35;67.48
80938;BME280;70395;51.382;7.074;2024-01-15T05:53:37;98942.28;;;3.38;67.57
80938;BME280;70395;51.382;7.074;2024-01-15T05:56:06;98943.84;;;3.41;67.40
80938;BME280;70395;51.382;7.074;2024-01-15T05:58:32;98946.34;;;3.42;67.28
80938;BME280;70395;51.382;7.074;2024-01-15T06:00:57;98932.97;;;3.44;67.42
80938;BME280;70395;51.382;7.074;2024-01-15T06:03:23;98941.75;;;3.44;67.33
80938;BME280;70395;51.382;7.074;2024-01-15T06:05:49;98937.44;;;3.43;67.40
80938;BME280;70395;51.382;7.074;2024-01-15T06:08:14;98943.84;;;3.41;67.40
80938;BME280;70395;51.382;7.074;2024-01-15T06:10:40;98943.00;;;3.40;67.42
80938;BME280;70395;51.382;7.074;2024-01-15T06:13:06;98938.53;;;3.41;67.49
80938;BME280;70395;51.382;7.074;2024-01-15T06:15:32;98930.44;;;3.42;67.43
80938;BME280;70395;51.382;7.074;2024-01-15T06:17:57;98929.22;;;3.46;67.32
80938;BME280;70395;51.382;7.074;2024-01-15T06:20:23;98922.94;;;3.47;67.30
80938;BME280;70395;51.382;7.074;2024-01-15T06:22:49;98928.13;;;3.49;67.41
80938;BME280;70395;51.382;7.074;2024-01-15T06:25:15;98928.94;;;3.49;67.33
80938;BME280;70395;51.382;7.074;2024-01-15T06:27:43;98938.72;;;3.49;67.18
80938;BME280;70395;51.382;7.074;2024-01-15T06:30:09;98914.72;;;3.51;67.23
80938;BME280;70395;51.382;7.074;2024-01-15T06:32:35;98924.34;;;3.52;67.09
80938;BME280;70395;51.382;7.074;2024-01-15T06:35:01;98917.38;;;3.51;67.40
80938;BME280;70395;51.382;7.074;2024-01-15T06:37:26;98921.69;;;3.52;67.17
80938;BME280;70395;51.382;7.074;2024-01-15T06:39:52;98922.41;;;3.54;67.09
80938;BME280;70395;51.382;7.074;2024-01-15T06:42:18;98916.97;;;3.55;67.09
80938;BME280;70395;51.382;7.074;2024-01-15T06:44:44;98921.44;;;3.55;67.11
80938;BME280;70395;51.382;7.074;2024-01-15T06:47:10;98916.00;;;3.56;67.18
80938;BME280;70395;51.382;7.074;2024-01-15T06:49:36;98909.72;;;3.57;67.18
80938;BME280;70395;51.382;7.074;2024-01-15T06:52:02;98921.88;;;3.60;66.99
80938;BME280;70395;51.382;7.074;2024-01-15T06:54:27;98907.75;;;3.59;66.96
80938;BME280;70395;51.382;7.074;2024-01-15T06:56:53;98919.22;;;3.60;66.99
80938;BME280;70395;51.382;7.074;2024-01-15T06:59:19;98921.72;;;3.62;67.05
80938;BME280;70395;51.382;7.074;2024-01-15T07:01:45;98927.16;;;3.60;66.83
80938;BME280;70395;51.382;7.074;2024-01-15T07:04:10;98925.47;;;3.59;66.90
80938;BME280;70395;51.382;7.074;2024-01-15T07:06:36;98916.00;;;3.56;66.95
80938;BME280;70395;51.382;7.074;2024-01-15T07:09:02;98918.66;;;3.56;66.88
80938;BME280;70395;51.382;7.074;2024-01-15T07:11:28;98921.44;;;3.55;66.97
80938;BME280;70395;51.382;7.074;2024-01-15T07:13:54;98922.41;;;3.54;66.98
80938;BME280;70395;51.382;7.074;2024-01-15T07:16:19;98919.75;;;3.54;67.18
80938;BME280;70395;51.382;7.074;2024-01-15T07:18:45;98922.13;;;3.57;66.98
80938;BME280;70395;51.382;7.074;2024-01-15T07:21:11;98922.00;;;3.58;66.92
80938;BME280;70395;51.382;7.074;2024-01-15T07:23:37;98923.13;;;3.56;66.89
80938;BME280;70395;51.382;7.074;2024-01-15T07:26:03;98921.56;;;3.53;67.16
80938;BME280;70395;51.382;7.074;2024-01-15T07:28:30;98920.88;;;3.51;66.92
80938;BME280;70395;51.382;7.074;2024-01-15T07:30:57;98920.03;;;3.51;67.01
80938;BME280;70395;51.382;7.074;2024-01-15T07:33:22;98920.16;;;3.49;66.99
80938;BME280;70395;51.382;7.074;2024-01-15T07:35:48;98917.53;;;3.49;67.03
80938;BME280;70395;51.382;7.074;2024-01-15T07:38:14;98923.53;;;3.51;67.04
80938;BME280;70395;51.382;7.074;2024-01-15T07:40:40;98915.69;;;3.49;66.99
80938;BME280;70395;51.382;7.074;2024-01-15T07:43:06;98917.53;;;3.49;67.19
80938;BME280;70395;51.382;7.074;2024-01-15T07:45:31;98919.03;;;3.52;67.17
80938;BME280;70395;51.382;7.074;2024-01-15T07:47:57;98921.56;;;3.53;66.96
80938;BME280;70395;51.382;7.074;2024-01-15T07:50:23;98915.16;;;3.56;66.80
80938;BME280;70395;51.382;7.074;2024-01-15T07:52:49;98913.22;;;3.58;66.85
80938;BME280;70395;51.382;7.074;2024-01-15T07:55:15;98922.13;;;3.57;67.06
80938;BME280;70395;51.382;7.074;2024-01-15T07:57:41;98912.63;;;3.54;66.99
80938;BME280;70395;51.382;7.074;2024-01-15T08:00:07;98916.28;;;3.53;67.04
80938;BME280;70395;51.382;7.074;2024-01-15T08:02:34;98914.47;;;3.54;67.09
80938;BME280;70395;51.382;7.074;2024-01-15T08:05:00;98901.31;;;3.52;67.03
80938;BME280;70395;51.382;7.074;2024-01-15T08:07:26;98909.56;;;3.49;67.21
80938;BME280;70395;51.382;7.074;2024-01-15T08:09:52;98911.63;;;3.45;67.36
80938;BME280;70395;51.382;7.074;2024-01-15T08:12:18;98906.47;;;3.44;67.22
80938;BME280;70395;51.382;7.074;2024-01-15T08:14:44;98904.78;;;3.43;67.30
80938;BME280;70395;51.382;7.074;2024-01-15T08:17:11;98912.75;;;3.43;67.24
80938;BME280;70395;51.382;7.074;2024-01-15T08:19:37;98899.63;;;3.41;67.33
80938;BME280;70395;51.382;7.074;2024-01-15T08:22:03;98901.44;;;3.41;67.43
80938;BME280;70395;51.382;7.074;2024-01-15T08:24:28;98901.44;;;3.41;67.34
80938;BME280;70395;51.382;7.074;2024-01-15T08:26:54;98894.31;;;3.41;67.56
80938;BME280;70395;51.382;7.074;2024-01-15T08:29:21;98898.78;;;3.41;67.43
80938;BME280;70395;51.382;7.074;2024-01-15T08:31:48;98896.28;;;3.39;67.47
80938;BME280;70395;51.382;7.074;2024-01-15T08:34:14;98897.38;;;3.36;67.35
80938;BME280;70395;51.382;7.074;2024-01-15T08:36:40;98902.09;;;3.33;67.60
80938;BME280;70395;51.382;7.074;2024-01-15T08:39:06;98894.41;;;3.30;67.63
80938;BME280;70395;51.382;7.074;2024-01-15T08:41:33;98895.66;;;3.25;68.10
80938;BME280;70395;51.382;7.074;2024-01-15T08:44:00;98894.09;;;3.23;67.91
80938;BME280;70395;51.382;7.074;2024-01-15T08:46:26;98899.56;;;3.21;67.97
80938;BME280;70395;51.382;7.074;2024-01-15T08:48:51;98907.59;;;3.20;68.03
80938;BME280;70395;51.382;7.074;2024-01-15T08:51:17;98909.44;;;3.19;68.03
80938;BME280;70395;51.382;7.074;2024-01-15T08:53:44;98912.09;;;3.19;68.15
80938;BME280;70395;51.382;7.074;2024-01-15T08:56:10;98911.09;;;3.20;68.06
80938;BME280;70395;51.382;7.074;2024-01-15T08:58:36;98913.66;;;3.22;68.08
80938;BME280;70395;51.382;7.074;2024-01-15T09:01:02;98919.66;;;3.24;67.96
80938;BME280;70395;51.382;7.074;2024-01-15T09:03:28;98919.34;;;3.27;68.06
80938;BME280;70395;51.382;7.074;2024-01-15T09:05:53;98923.44;;;3.31;68.11
80938;BME280;70395;51.382;7.074;2024-01-15T09:08:20;98920.66;;;3.33;67.73
80938;BME280;70395;51.382;7.074;2024-01-15T09:10:46;98928.59;;;3.33;67.88
80938;BME280;70395;51.382;7.074;2024-01-15T09:13:12;98935.59;;;3.34;67.76
80938;BME280;70395;51.382;7.074;2024-01-15T09:15:38;98928.59;;;3.33;67.74
80938;BME280;70395;51.382;7.074;2024-01-15T09:18:04;98941.59;;;3.36;67.74
80938;BME280;70395;51.382;7.074;2024-01-15T09:20:30;98937.38;;;3.33;68.06
80938;BME280;70395;51.382;7.074;2024-01-15T09:22:56;98940.19;;;3.32;67.80
80938;BME280;70395;51.382;7.074;2024-01-15T09:25:22;98943.78;;;3.31;67.67
80938;BME280;70395;51.382;7.074;2024-01-15T09:27:48;98939.59;;;3.28;67.76
80938;BME280;70395;51.382;7.074;2024-01-15T09:30:14;98945.16;;;3.25;67.86
80938;BME280;70395;51.382;7.074;2024-01-15T09:32:40;98947.94;;;3.23;67.91
80938;BME280;70395;51.382;7.074;2024-01-15T09:35:07;98945.28;;;3.23;67.93
80938;BME280;70395;51.382;7.074;2024-01-15T09:37:33;98944.59;;;3.21;67.93
80938;BME280;70395;51.382;7.074;2024-01-15T09:39:58;98942.19;;;3.18;68.04
80938;BME280;70395;51.382;7.074;2024-01-15T09:42:25;98943.75;;;3.21;68.09
80938;BME280;70395;51.382;7.074;2024-01-15T09:44:52;98942.50;;;3.25;68.02
80938;BME280;70395;51.382;7.074;2024-01-15T09:47:20;98943.09;;;3.29;67.96
80938;BME280;70395;51.382;7.074;2024-01-15T09:49:47;98940.88;;;3.34;67.93
80938;BME280;70395;51.382;7.074;2024-01-15T09:52:15;98942.28;;;3.38;67.90
80938;BME280;70395;51.382;7.074;2024-01-15T09:54:46;98949.13;;;3.41;67.80
80938;BME280;70395;51.382;7.074;2024-01-15T09:57:12;98956.69;;;3.45;67.80
80938;BME280;70395;51.382;7.074;2024-01-15T09:59:40;98948.19;;;3.52;67.71
80938;BME280;70395;51.382;7.074;2024-01-15T10:02:10;98953.22;;;3.55;67.58
80938;BME280;70395;51.382;7.074;2024-01-15T10:04:40;98953.94;;;3.57;67.85
80938;BME280;70395;51.382;7.074;2024-01-15T10:07:08;98956.19;;;3.62;67.51
80938;BME280;70395;51.382;7.074;2024-01-15T10:09:34;98958.44;;;3.66;67.63
80938;BME280;70395;51.382;7.074;2024-01-15T10:12:00;98952.59;;;3.72;67.45
80938;BME280;70395;51.382;7.074;2024-01-15T10:14:26;98952.34;;;3.76;67.40
80938;BME280;70395;51.382;7.074;2024-01-15T10:16:52;98950.25;;;3.79;67.29
80938;BME280;70395;51.382;7.074;2024-01-15T10:19:18;98950.69;;;3.85;67.19
80938;BME280;70395;51.382;7.074;2024-01-15T10:21:44;98940.91;;;3.85;67.07
80938;BME280;70395;51.382;7.074;2024-01-15T10:24:12;98944.97;;;3.89;67.17
80938;BME280;70395;51.382;7.074;2024-01-15T10:26:38;98928.22;;;3.89;67.05
80938;BME280;70395;51.382;7.074;2024-01-15T10:29:03;98931.00;;;3.87;67.07
80938;BME280;70395;51.382;7.074;2024-01-15T10:31:31;98933.91;;;3.84;66.94
80938;BME280;70395;51.382;7.074;2024-01-15T10:34:13;98935.31;;;3.78;67.05
80938;BME280;70395;51.382;7.074;2024-01-15T10:36:41;98930.84;;;3.79;67.15
80938;BME280;70395;51.382;7.074;2024-01-15T10:39:07;98927.47;;;3.77;67.18
80938;BME280;70395;51.382;7.074;2024-01-15T10:41:34;98932.78;;;3.77;66.78
80938;BME280;70395;51.382;7.074;2024-01-15T10:43:59;98929.19;;;3.78;66.87
80938;BME280;70395;51.382;7.074;2024-01-15T10:46:26;98932.66;;;3.78;66.74
80938;BME280;70395;51.382;7.074;2024-01-15T10:48:52;98939.78;;;3.78;66.62
80938;BME280;70395;51.382;7.074;2024-01-15T10:51:18;98938.78;;;3.79;66.74
80938;BME280;70395;51.382;7.074;2024-01-15T10:53:45;98941.63;;;3.87;66.82
80938;BME280;70395;51.382;7.074;2024-01-15T10:56:13;98938.13;;;3.97;66.82
80938;BME280;70395;51.382;7.074;2024-01-15T10:58:41;98933.13;;;4.03;66.53
80938;BME280;70395;51.382;7.074;2024-01-15T11:01:08;98929.25;;;4.08;66.48
80938;BME280;70395;51.382;7.074;2024-01-15T11:03:34;98943.19;;;4.10;66.38
80938;BME280;70395;51.382;7.074;2024-01-15T11:06:00;98943.47;;;4.16;66.38
80938;BME280;70395;51.382;7.074;2024-01-15T11:08:26;98943.34;;;4.18;66.17
80938;BME280;70395;51.382;7.074;2024-01-15T11:10:52;98945.16;;;4.18;65.71
80938;BME280;70395;51.382;7.074;2024-01-15T11:16:10;98948.38;;;4.21;65.70
80938;BME280;70395;51.382;7.074;2024-01-15T11:21:23;98945.88;;;4.30;65.64
80938;BME280;70395;51.382;7.074;2024-01-15T11:26:46;98945.03;;;4.29;65.55
80938;BME280;70395;51.382;7.074;2024-01-15T11:32:07;98953.00;;;4.39;65.65
80938;BME280;70395;51.382;7.074;2024-01-15T11:35:01;98956.78;;;4.46;65.59
80938;BME280;70395;51.382;7.074;2024-01-15T11:43:06;98949.25;;;4.52;65.00
80938;BME280;70395;51.382;7.074;2024-01-15T11:45:32;98948.38;;;4.61;65.30
80938;BME280;70395;51.382;7.074;2024-01-15T11:48:16;98946.28;;;4.65;65.05
80938;BME280;70395;51.382;7.074;2024-01-15T11:50:50;98944.47;;;4.65;64.75
80938;BME280;70395;51.382;7.074;2024-01-15T11:53:44;98946.84;;;4.58;64.73
80938;BME280;70395;51.382;7.074;2024-01-15T11:56:17;98943.09;;;4.51;64.81
80938;BME280;70395;51.382;7.074;2024-01-15T11:58:48;98936.38;;;4.47;64.82
80938;BME280;70395;51.382;7.074;2024-01-15T12:01:16;98938.34;;;4.45;64.82
80938;BME280;70395;51.382;7.074;2024-01-15T12:03:41;98933.56;;;4.38;64.86
80938;BME280;70395;51.382;7.074;2024-01-15T12:06:08;98933.84;;;4.35;64.94
80938;BME280;70395;51.382;7.074;2024-01-15T12:08:35;98934.84;;;4.34;64.79
80938;BME280;70395;51.382;7.074;2024-01-15T12:11:07;98933.56;;;4.28;64.73
80938;BME280;70395;51.382;7.074;2024-01-15T12:13:36;98937.34;;;4.26;64.84
80938;BME280;70395;51.382;7.074;2024-01-15T12:16:02;98939.28;;;4.24;65.00
80938;BME280;70395;51.382;7.074;2024-01-15T12:18:30;98947.53;;;4.21;64.92
80938;BME280;70395;51.382;7.074;2024-01-15T12:20:56;98940.97;;;4.15;65.05
80938;BME280;70395;51.382;7.074;2024-01-15T12:23:24;98940.97;;;4.15;65.18
80938;BME280;70395;51.382;7.074;2024-01-15T12:25:50;98928.69;;;4.14;65.34
80938;BME280;70395;51.382;7.074;2024-01-15T12:28:16;98933.13;;;4.13;65.22
80938;BME280;70395;51.382;7.074;2024-01-15T12:30:42;98927.97;;;4.12;65.08
80938;BME280;70395;51.382;7.074;2024-01-15T12:33:08;98927.97;;;4.12;65.12
80938;BME280;70395;51.382;7.074;2024-01-15T12:35:34;98933.72;;;4.17;65.30
80938;BME280;70395;51.382;7.074;2024-01-15T12:38:02;98937.50;;;4.34;65.23
80938;BME280;70395;51.382;7.074;2024-01-15T12:40:28;98930.91;;;4.58;65.05
80938;BME280;70395;51.382;7.074;2024-01-15T12:42:54;98930.91;;;4.78;64.81
80938;BME280;70395;51.382;7.074;2024-01-15T12:45:20;98927.38;;;4.88;64.68
80938;BME280;70395;51.382;7.074;2024-01-15T12:47:46;98927.53;;;4.96;64.57
80938;BME280;70395;51.382;7.074;2024-01-15T12:50:13;98942.03;;;5.02;64.39
80938;BME280;70395;51.382;7.074;2024-01-15T12:52:42;98946.78;;;5.08;64.25
80938;BME280;70395;51.382;7.074;2024-01-15T12:55:09;98947.19;;;5.13;63.98
80938;BME280;70395;51.382;7.074;2024-01-15T12:57:36;98952.09;;;5.08;63.93
80938;BME280;70395;51.382;7.074;2024-01-15T13:00:04;98950.16;;;5.00;63.55
80938;BME280;70395;51.382;7.074;2024-01-15T13:02:34;98937.03;;;4.89;63.69
80938;BME280;70395;51.382;7.074;2024-01-15T13:05:00;98948.50;;;4.79;63.84
80938;BME280;70395;51.382;7.074;2024-01-15T13:07:27;98958.16;;;4.70;63.93
80938;BME280;70395;51.382;7.074;2024-01-15T13:09:53;98951.19;;;4.59;63.67
80938;BME280;70395;51.382;7.074;2024-01-15T13:12:20;98953.84;;;4.49;64.02
80938;BME280;70395;51.382;7.074;2024-01-15T13:14:46;98965.16;;;4.42;64.23
80938;BME280;70395;51.382;7.074;2024-01-15T13:17:15;98962.50;;;4.32;64.23
80938;BME280;70395;51.382;7.074;2024-01-15T13:19:41;98973.53;;;4.27;64.46
80938;BME280;70395;51.382;7.074;2024-01-15T13:22:07;98966.53;;;4.26;64.33